Latest Weather Observations for Munglinup West

IDW60801

Issued at 11:03 am WST Sunday 1 March 2015 (issued every 30 minutes, with the page automatically refreshed every 10 minutes)

About weather observations | Map of weather stations | Latest weather observations for WA | Other Formats
Station Details ID: 012044 Name: MUNGLINUP WEST Lat: -33.55 Lon: 120.70 Height: 220.0 m
Data from the previous 72 hours. | See also: Recent months at Munglinup West
Date/Time
WST
Temp
°C
App
Temp
°C
Dew
Point
Rel
Hum
%
Delta-T
°C
Wind Press
QNH
hPa
Press
MSL
hPa
Rain
since 9 am
mm
Dir
 
Spd
km/h
Gust
km/h
Spd
kts
Gust
kts
01/11:00am 26.8 23.9 12.8 42 8.2 NE 20 32 11 17 1014.4 1013.7 0.2
01/10:30am 25.7 23.4 12.9 45 7.5 NE 17 28 9 15 1015.3 1014.5 0.0
01/10:00am 24.6 22.4 13.2 49 6.7 NE 17 32 9 17 1015.9 1015.1 0.0
01/09:30am 23.2 20.7 13.4 54 5.7 NE 19 26 10 14 1016.6 1015.8 0.0
01/09:00am 22.0 19.9 13.6 59 4.9 NE 17 30 9 16 1016.9 1016.1 0.0
01/08:30am 21.0 18.6 13.7 63 4.2 ENE 19 28 10 15 1017.1 1016.3 0.0
01/08:00am 19.8 17.7 13.5 67 3.6 ENE 17 22 9 12 1016.8 1016.0 0.0
01/07:30am 18.7 16.6 13.6 72 2.9 ENE 17 24 9 13 1017.0 1016.1 0.0
01/07:00am 17.1 15.7 13.4 79 2.1 E 13 19 7 10 1017.2 1016.3 0.0
01/06:30am 15.4 13.8 12.7 84 1.5 E 13 19 7 10 1017.2 1016.3 0.0
01/06:00am 15.4 14.2 12.9 85 1.4 E 11 17 6 9 1017.2 1016.3 0.0
01/05:30am 15.1 13.5 12.8 86 1.3 ENE 13 17 7 9 1017.1 1016.2 0.0
01/05:00am 14.8 13.1 12.5 86 1.3 E 13 17 7 9 1016.8 1015.9 0.0
01/04:30am 14.5 12.4 12.4 87 1.2 ENE 15 20 8 11 1016.7 1015.8 0.0
01/04:00am 13.9 12.4 11.8 87 1.1 ENE 11 17 6 9 1016.6 1015.7 0.0
01/03:30am 14.8 12.6 12.1 84 1.5 E 15 19 8 10 1016.7 1015.8 0.0
01/03:00am 15.1 12.9 12.2 83 1.6 ENE 15 19 8 10 1016.9 1016.0 0.0
01/02:30am 15.2 13.5 12.3 83 1.6 ENE 13 20 7 11 1016.9 1016.0 0.0
01/02:00am 15.2 12.1 12.3 83 1.6 E 20 28 11 15 1016.9 1016.0 0.0
01/01:30am 14.9 12.7 12.0 83 1.6 E 15 22 8 12 1017.1 1016.2 0.0
01/01:00am 15.1 12.8 11.9 81 1.7 E 15 22 8 12 1017.5 1016.6 0.0
01/12:30am 14.9 12.6 11.7 81 1.7 E 15 20 8 11 1017.7 1016.8 0.0
01/12:00am 15.0 12.3 11.8 81 1.7 E 17 26 9 14 1017.9 1017.0 0.0
 
Date/Time
WST
Temp
°C
App
Temp
°C
Dew
Point
Rel
Hum
%
Delta-T
°C
Wind Press
QNH
hPa
Press
MSL
hPa
Rain
since 9 am
mm
Dir
 
Spd
km/h
Gust
km/h
Spd
kts
Gust
kts
28/11:30pm 14.9 11.8 11.7 81 1.7 E 19 28 10 15 1018.0 1017.1 0.0
28/11:00pm 14.7 11.7 12.0 84 1.5 E 19 26 10 14 1018.2 1017.3 0.0
28/10:30pm 13.5 11.9 11.7 89 1.0 E 11 19 6 10 1018.6 1017.7 0.0
28/10:00pm 13.5 11.1 11.4 87 1.1 E 15 20 8 11 1018.8 1017.9 0.0
28/09:30pm 13.6 11.2 11.5 87 1.1 E 15 19 8 10 1019.0 1018.1 0.0
28/09:00pm 13.7 11.3 11.4 86 1.2 ESE 15 19 8 10 1018.9 1018.0 0.0
28/08:30pm 13.9 11.4 11.2 84 1.4 ESE 15 20 8 11 1018.8 1017.9 0.0
28/08:00pm 14.4 12.0 11.4 82 1.6 ESE 15 19 8 10 1018.6 1017.7 0.0
28/07:30pm 14.8 12.0 11.4 80 1.8 SE 17 20 9 11 1018.5 1017.6 0.0
28/07:00pm 15.4 13.0 11.4 77 2.2 ESE 15 20 8 11 1018.3 1017.4 0.0
28/06:30pm 16.2 12.9 11.6 74 2.5 ESE 20 28 11 15 1018.3 1017.4 0.0
28/06:00pm 17.1 13.5 11.8 71 2.9 ESE 22 32 12 17 1018.3 1017.4 0.0
28/05:30pm 18.1 13.4 12.1 68 3.3 SE 28 33 15 18 1018.1 1017.2 0.0
28/05:00pm 18.6 13.6 12.1 66 3.6 SE 30 39 16 21 1018.3 1017.4 0.0
28/04:30pm 18.7 14.1 12.2 66 3.6 SE 28 35 15 19 1018.1 1017.2 0.0
28/04:00pm 19.4 15.6 12.4 64 3.9 SE 24 35 13 19 1018.1 1017.2 0.0
28/03:30pm 20.4 16.2 12.4 60 4.5 SE 26 37 14 20 1018.3 1017.4 0.0
28/03:00pm 21.8 17.3 12.6 56 5.3 SE 28 37 15 20 1018.4 1017.5 0.0
28/02:30pm 21.8 17.5 13.2 58 5.0 SE 28 41 15 22 1018.5 1017.6 0.0
28/02:00pm 20.7 16.0 13.2 62 4.3 SE 30 43 16 23 1018.6 1017.7 0.0
28/01:30pm 21.1 18.0 13.3 61 4.5 SSE 22 32 12 17 1018.7 1017.8 0.0
28/01:00pm 20.1 16.7 13.6 66 3.8 SSE 24 35 13 19 1018.7 1017.8 0.0
28/12:30pm 20.5 17.3 13.2 63 4.2 SSE 22 32 12 17 1018.6 1017.7 0.0
28/12:00pm 20.5 17.1 13.7 65 3.9 SSE 24 33 13 18 1018.6 1017.7 0.0
28/11:30am 20.4 17.6 14.3 68 3.6 SSE 22 35 12 19 1018.7 1017.8 0.0
28/11:00am 19.9 15.9 14.0 69 3.4 SSE 28 39 15 21 1018.9 1018.0 0.0
28/10:30am 21.1 18.2 15.0 68 3.6 SSE 24 35 13 19 1018.8 1017.9 0.0
28/10:00am 21.2 18.8 15.5 70 3.4 SSE 22 30 12 16 1018.8 1017.9 0.0
28/09:30am 19.0 17.2 15.9 82 1.9 SSE 20 30 11 16 1018.6 1017.7 0.0
28/09:00am 18.5 18.3 18.5 100 0.0 SSE 17 24 9 13 1018.3 1017.4 2.2
28/08:30am 17.3 17.3 17.3 100 0.0 S 13 20 7 11 1018.2 1017.3 2.2
28/08:00am 16.7 - - - - S 15 20 8 11 1018.2 1017.3 2.2
28/07:30am 16.3 - - - - S 11 17 6 9 1017.9 1017.0 2.2
28/07:00am 16.1 - - - - S 11 15 6 8 1017.4 1016.5 2.2
28/06:30am 15.8 - - - - SSW 6 9 3 5 1016.8 1015.9 2.0
28/06:00am 15.3 - - - - S 7 11 4 6 1016.3 1015.4 2.0
28/05:30am 15.0 15.9 15.0 100 0.0 WSW 4 6 2 3 1015.9 1014.9 2.0
28/05:00am 14.7 15.1 14.7 100 0.0 WSW 6 7 3 4 1015.7 1014.7 2.0
28/04:30am 14.6 14.8 14.6 100 0.0 WSW 7 11 4 6 1015.3 1014.3 1.4
28/04:00am 14.4 14.5 14.4 100 0.0 W 7 9 4 5 1014.8 1013.9 1.4
28/03:30am 13.8 13.7 13.8 100 0.0 NW 7 9 4 5 1014.6 1013.7 1.4
28/03:00am 13.6 13.4 13.6 100 0.0 NW 7 11 4 6 1014.3 1013.4 1.4
28/02:30am 13.2 12.9 13.2 100 0.0 NNW 7 7 4 4 1014.2 1013.3 1.4
28/02:00am 13.4 13.3 13.4 100 0.0 NW 6 7 3 4 1014.1 1013.2 1.4
28/01:30am 13.3 13.2 13.3 100 0.0 NW 6 6 3 3 1014.0 1013.1 1.4
28/01:00am 13.5 13.5 13.5 100 0.0 NNW 6 6 3 3 1013.9 1013.0 1.4
28/12:30am 13.5 14.2 13.5 100 0.0 WSW 2 2 1 1 1013.9 1013.0 1.4
28/12:00am 13.6 14.4 13.6 100 0.0 WSW 2 4 1 2 1014.1 1013.2 1.4
 
Date/Time
WST
Temp
°C
App
Temp
°C
Dew
Point
Rel
Hum
%
Delta-T
°C
Wind Press
QNH
hPa
Press
MSL
hPa
Rain
since 9 am
mm
Dir
 
Spd
km/h
Gust
km/h
Spd
kts
Gust
kts
27/11:30pm 14.0 14.9 14.0 100 0.0 SW 2 4 1 2 1014.2 1013.3 1.4
27/11:00pm 14.0 14.1 14.0 100 0.0 SSW 6 6 3 3 1014.0 1013.1 1.4
27/10:30pm 14.4 14.7 14.4 100 0.0 SSW 6 7 3 4 1013.7 1012.8 1.4
27/10:00pm 14.8 15.2 14.8 100 0.0 SSW 6 7 3 4 1013.8 1012.9 1.4
27/09:30pm 15.4 15.8 15.4 100 0.0 SSW 7 9 4 5 1013.8 1012.9 1.4
27/09:00pm 15.8 15.3 15.8 100 0.0 SSW 13 15 7 8 1013.6 1012.7 1.4
27/08:30pm 16.2 15.8 16.2 100 0.0 SSW 13 17 7 9 1013.3 1012.4 1.4
27/08:00pm 16.4 16.8 16.4 100 0.0 SSW 9 13 5 7 1013.0 1012.1 1.4
27/07:30pm 16.6 15.6 16.6 100 0.0 SSW 17 22 9 12 1012.3 1011.4 1.4
27/07:00pm 16.6 15.0 16.6 100 0.0 SSW 20 28 11 15 1011.7 1010.7 1.4
27/06:30pm 16.7 14.0 16.7 100 0.0 SSW 26 35 14 19 1011.1 1010.1 1.4
27/06:09pm 17.2 14.4 17.2 100 0.0 SSW 28 50 15 27 1010.7 1009.7 1.4
27/06:00pm 17.7 15.8 17.7 100 0.0 SSW 24 35 13 19 1010.5 1009.5 1.2
27/05:30pm 18.0 15.1 18.0 100 0.0 SSW 30 43 16 23 1009.8 1008.9 0.6
27/05:00pm 18.9 17.5 18.9 100 0.0 SSW 24 32 13 17 1009.4 1008.5 0.4
27/04:30pm 19.0 17.2 18.8 99 0.1 SSW 26 33 14 18 1009.0 1008.1 0.0
27/04:00pm 20.9 18.3 18.7 87 1.4 SSW 30 37 16 20 1008.4 1007.5 0.0
27/03:30pm 21.4 19.7 19.9 91 1.0 SSW 28 39 15 21 1008.1 1007.2 0.0
27/03:00pm 21.9 19.4 19.8 88 1.4 SSW 32 39 17 21 1007.8 1006.8 0.0
27/02:30pm 23.4 20.7 19.3 78 2.6 SW 32 44 17 24 1007.4 1006.4 0.0
27/02:00pm 23.8 22.0 19.5 77 2.8 SW 28 35 15 19 1007.3 1006.3 0.0
27/01:30pm 24.3 22.5 19.6 75 3.0 SW 28 33 15 18 1007.3 1006.3 0.0
27/01:00pm 22.3 21.7 19.7 85 1.7 SW 22 28 12 15 1007.4 1006.4 0.0
27/12:30pm 24.9 24.9 20.2 75 3.1 SSW 20 24 11 13 1006.7 1005.7 0.0
27/12:00pm 24.8 24.0 20.1 75 3.1 SSW 24 33 13 18 1006.3 1005.3 0.0
27/11:30am 26.8 26.8 20.2 67 4.3 WSW 20 32 11 17 1005.7 1004.7 0.0
27/11:00am 26.7 27.0 20.3 68 4.2 WSW 19 33 10 18 1005.6 1004.6 0.0
27/10:30am 26.2 26.5 19.6 67 4.3 SW 17 24 9 13 1005.7 1004.7 0.0
27/10:00am 25.6 26.7 19.7 70 3.9 SW 13 20 7 11 1005.7 1004.7 0.0
27/09:30am 24.8 25.8 19.4 72 3.5 SW 13 19 7 10 1005.7 1004.7 0.0
27/09:00am 26.0 27.1 19.6 68 4.2 SW 13 22 7 12 1005.5 1004.5 0.2
27/08:30am 24.9 27.3 18.8 69 3.9 SW 4 6 2 3 1005.2 1004.3 0.2
27/08:00am 23.5 25.5 17.9 71 3.5 NE 4 9 2 5 1005.3 1004.4 0.2
27/07:30am 22.7 24.7 18.7 78 2.5 E 6 7 3 4 1005.5 1004.5 0.2
27/07:00am 20.8 22.8 19.1 90 1.1 ESE 7 9 4 5 1005.6 1004.6 0.2
27/06:30am 19.0 20.7 18.5 97 0.3 ESE 7 11 4 6 1005.5 1004.5 0.2
27/06:00am 17.7 18.5 17.4 98 0.2 E 9 11 5 6 1005.2 1004.3 0.2
27/05:30am 17.4 18.4 16.9 97 0.3 SE 7 9 4 5 1005.2 1004.3 0.2
27/05:00am 17.2 18.3 16.6 96 0.4 S 6 7 3 4 1005.3 1004.4 0.2
27/04:30am 17.9 20.0 17.3 96 0.4 NE 2 2 1 1 1005.2 1004.3 0.2
27/04:00am 18.1 19.4 17.1 94 0.6 NE 6 9 3 5 1005.0 1004.1 0.2
27/03:30am 18.7 20.0 17.5 93 0.7 NE 7 11 4 6 1004.9 1004.0 0.2
27/03:00am 18.9 19.9 17.7 93 0.7 NE 9 11 5 6 1005.1 1004.2 0.2
27/02:30am 19.0 20.0 17.7 92 0.8 ENE 9 9 5 5 1005.6 1004.6 0.2
27/02:00am 19.6 21.2 17.9 90 1.1 ENE 6 9 3 5 1005.9 1004.9 0.2
27/01:30am 19.5 20.5 17.8 90 1.1 NE 9 11 5 6 1005.8 1004.8 0.2
27/01:00am 20.1 21.6 18.1 88 1.3 ESE 7 9 4 5 1006.4 1005.4 0.2
27/12:30am 21.0 22.3 18.4 85 1.6 SSW 9 20 5 11 1007.5 1006.5 0.2
27/12:00am 20.6 20.7 18.4 87 1.4 NNE 15 22 8 12 1006.3 1005.3 0.2
 
Date/Time
WST
Temp
°C
App
Temp
°C
Dew
Point
Rel
Hum
%
Delta-T
°C
Wind Press
QNH
hPa
Press
MSL
hPa
Rain
since 9 am
mm
Dir
 
Spd
km/h
Gust
km/h
Spd
kts
Gust
kts
26/11:30pm 20.3 20.8 18.4 89 1.2 NE 13 19 7 10 1006.5 1005.5 0.2
26/11:00pm 20.5 21.1 18.6 89 1.2 NE 13 17 7 9 1006.9 1005.9 0.2
26/10:30pm 20.5 20.7 18.6 89 1.2 NE 15 20 8 11 1007.0 1006.0 0.2
26/10:00pm 20.6 20.5 18.7 89 1.2 NE 17 20 9 11 1007.6 1006.6 0.2
26/09:30pm 20.6 20.5 18.7 89 1.2 NE 17 24 9 13 1007.6 1006.6 0.2
26/09:00pm 20.6 20.1 19.1 91 1.0 ENE 20 28 11 15 1007.7 1006.7 0.2
26/08:30pm 20.1 21.0 19.3 95 0.5 ENE 13 19 7 10 1008.2 1007.3 0.2
26/08:00pm 19.9 20.3 19.1 95 0.5 ENE 15 24 8 13 1008.0 1007.1 0.2
26/07:30pm 19.9 19.9 18.9 94 0.6 E 17 22 9 12 1007.7 1006.7 0.2
26/07:00pm 20.2 20.2 19.0 93 0.8 ESE 17 22 9 12 1008.0 1007.1 0.2
26/06:30pm 21.0 22.7 19.3 90 1.1 SE 9 15 5 8 1008.1 1007.2 0.2
26/06:00pm 21.4 20.5 19.1 87 1.5 SE 22 32 12 17 1007.6 1006.6 0.2
26/05:30pm 22.8 21.9 19.0 79 2.4 SSE 22 28 12 15 1007.5 1006.5 0.2
26/05:00pm 23.8 22.8 18.9 74 3.1 SSE 22 32 12 17 1007.6 1006.6 0.2
26/04:30pm 25.4 22.8 18.6 66 4.4 SE 30 37 16 20 1007.0 1006.0 0.2
26/04:00pm 27.3 24.4 18.9 60 5.5 SE 32 41 17 22 1006.6 1005.6 0.2
26/03:30pm 25.8 22.6 18.7 65 4.6 SE 33 44 18 24 1006.2 1005.2 0.2
26/03:00pm 26.0 22.9 18.4 63 4.9 SE 32 41 17 22 1006.2 1005.2 0.2
26/02:30pm 25.6 22.8 19.0 67 4.3 SE 32 41 17 22 1006.4 1005.4 0.2
26/02:00pm 23.3 21.1 19.5 79 2.5 SSE 30 43 16 23 1007.2 1006.2 0.2
26/01:30pm 22.3 20.9 20.4 89 1.2 S 28 39 15 21 1008.0 1007.1 0.2
26/01:00pm 24.5 22.7 19.6 74 3.2 SW 28 35 15 19 1008.6 1007.7 0.2
26/12:30pm 29.4 29.6 20.5 58 5.9 SSW 20 30 11 16 1007.7 1006.7 0.2
26/12:00pm 28.5 30.1 20.0 60 5.6 S 11 24 6 13 1007.9 1006.9 0.2
26/11:30am 29.1 31.0 19.7 57 6.2 SE 9 17 5 9 1008.4 1007.5 0.2

Other Formats:

Comma delimited format used in spreadsheet applications
http://www.bom.gov.au/fwo/IDW60801/IDW60801.95644.axf

JavaScript Object Notation format (JSON) in row-major order
http://www.bom.gov.au/fwo/IDW60801/IDW60801.95644.json